Time;durP1;ratioP1;P1;durP2;ratioP2;P2;SDS_P1;SDS_P2;PMS_P1;PMS_P2;Temp;Humidity;BMP_temperature;BMP_pressure;BME280_temperature;BME280_humidity;BME280_pressure;Samples;Min_cycle;Max_cycle;Signal;HPM_P1;HPM_P2
2023/12/22 01:48:48;;;;;;;9.38;1.45;;;;;;;;;;6128410;23;20655;-95
2023/12/22 01:51:46;;;;;;;;;;;;;;;;;;;;;
2023/12/22 02:01:33;;;;;;;;;;;;;;;;;;;;;
2023/12/22 04:59:19;;;;;;;;;;;;;;;;;;;;;
2023/12/22 06:25:28;;;;;;;;;;;;;;;;;;;;;
2023/12/22 06:34:35;;;;;;;20.98;2.83;;;;;;;;;;6156247;23;20002;-95
2023/12/22 06:40:35;;;;;;;19.58;2.58;;;;;;;;;;6123671;23;20033;-96
2023/12/22 06:43:26;;;;;;;14.70;2.85;;;;;;;;;;6154535;23;20004;-96
2023/12/22 06:45:58;;;;;;;24.27;2.85;;;;;;;;;;6127758;23;20060;-96
2023/12/22 06:51:39;;;;;;;28.25;3.00;;;;;;;;;;6155912;23;20001;-95
2023/12/22 06:54:04;;;;;;;23.85;2.78;;;;;;;;;;6138686;23;19994;-96
2023/12/22 06:56:35;;;;;;;18.63;2.83;;;;;;;;;;6127707;23;20073;-96
2023/12/22 06:59:03;;;;;;;22.35;2.72;;;;;;;;;;6128626;23;20010;-95
2023/12/22 07:02:08;;;;;;;19.08;2.67;;;;;;;;;;6128740;23;20017;-96
2023/12/22 07:08:14;;;;;;;23.50;2.78;;;;;;;;;;6064834;23;20003;-95
2023/12/22 07:10:53;;;;;;;22.45;4.03;;;;;;;;;;6039089;23;20155;-96
2023/12/22 07:13:19;;;;;;;20.83;3.28;;;;;;;;;;6041155;23;19998;-96
2023/12/22 07:15:54;;;;;;;19.42;2.70;;;;;;;;;;6075135;23;20008;-96
2023/12/22 07:18:30;;;;;;;18.23;2.88;;;;;;;;;;6129357;23;20060;-95
2023/12/22 07:21:27;;;;;;;23.08;2.72;;;;;;;;;;6127099;23;20010;-95
2023/12/22 07:23:57;;;;;;;27.83;3.47;;;;;;;;;;6142691;23;20005;-96
2023/12/22 07:29:17;;;;;;;28.52;4.10;;;;;;;;;;6138454;23;20341;-96
2023/12/22 07:31:43;;;;;;;19.60;2.15;;;;;;;;;;6128015;23;20004;-95
2023/12/22 07:34:22;;;;;;;22.30;3.45;;;;;;;;;;6128297;23;20084;-96
2023/12/22 07:37:08;;;;;;;24.88;3.13;;;;;;;;;;6128986;23;20085;-96
2023/12/22 07:39:44;;;;;;;22.58;2.60;;;;;;;;;;6152572;23;20056;-96
2023/12/22 07:42:11;;;;;;;13.63;2.20;;;;;;;;;;6127300;23;20010;-96
2023/12/22 07:44:48;;;;;;;16.17;2.75;;;;;;;;;;6127767;23;20080;-96
2023/12/22 07:47:13;;;;;;;15.48;2.42;;;;;;;;;;6121656;23;20032;-95
2023/12/22 07:49:38;;;;;;;19.95;2.83;;;;;;;;;;6125489;23;20005;-95
2023/12/22 07:52:04;;;;;;;14.60;1.98;;;;;;;;;;6127763;23;20002;-96
2023/12/22 07:54:29;;;;;;;16.05;3.97;;;;;;;;;;6127977;23;20006;-94
2023/12/22 07:56:54;;;;;;;15.48;2.50;;;;;;;;;;6128121;23;20017;-96
2023/12/22 07:59:22;;;;;;;12.02;2.20;;;;;;;;;;6128979;23;20032;-95
2023/12/22 08:01:50;;;;;;;13.68;2.08;;;;;;;;;;6132690;23;20417;-96
2023/12/22 08:04:15;;;;;;;11.65;1.85;;;;;;;;;;6131414;23;20001;-96
2023/12/22 08:06:46;;;;;;;15.77;1.85;;;;;;;;;;6125222;23;20000;-96
2023/12/22 08:09:13;;;;;;;9.45;1.98;;;;;;;;;;6125919;23;20014;-95
2023/12/22 08:11:38;;;;;;;13.82;2.00;;;;;;;;;;6129121;23;20002;-96
2023/12/22 08:14:08;;;;;;;9.88;1.70;;;;;;;;;;6129883;23;20004;-96
2023/12/22 08:16:44;;;;;;;6.30;1.13;;;;;;;;;;6130662;23;20053;-96
2023/12/22 08:19:12;;;;;;;13.40;1.85;;;;;;;;;;6125114;23;20205;-96
2023/12/22 08:22:12;;;;;;;;;;;;;;;;;;;;;
2023/12/22 08:24:45;;;;;;;11.13;1.45;;;;;;;;;;6175517;23;20004;-96
2023/12/22 08:30:53;;;;;;;8.63;1.92;;;;;;;;;;6124293;23;20008;-95
2023/12/22 08:33:32;;;;;;;12.32;2.00;;;;;;;;;;6114930;23;20009;-96
2023/12/22 09:12:08;;;;;;;5.43;2.13;;;;;;;;;;6212658;23;20029;-96
2023/12/22 09:14:36;;;;;;;8.10;2.75;;;;;;;;;;6191375;23;20011;-96
2023/12/22 09:38:13;;;;;;;4.25;1.83;;;;;;;;;;6185204;23;20078;-96
2023/12/22 09:40:48;;;;;;;;;;;;;;;;;;;;;
2023/12/22 10:09:30;;;;;;;3.58;1.13;;;;;;;;;;6189544;23;20040;-96
2023/12/22 10:12:37;;;;;;;4.00;1.20;;;;;;;;;;6192123;23;20009;-96
2023/12/22 10:15:39;;;;;;;4.03;1.60;;;;;;;;;;6219574;23;20075;-96
2023/12/22 10:21:42;;;;;;;;;;;;;;;;;;;;;
2023/12/22 10:43:49;;;;;;;;;;;;;;;;;;;;;
2023/12/22 11:44:27;;;;;;;9.50;1.00;;;;;;;;;;6204223;23;20019;-95
2023/12/22 13:35:53;;;;;;;2.38;0.63;;;;;;;;;;6194869;23;20300;-96
2023/12/22 13:38:42;;;;;;;6.15;1.17;;;;;;;;;;6210322;22;20000;-96
2023/12/22 13:41:12;;;;;;;2.53;0.77;;;;;;;;;;6180105;22;20013;-96
2023/12/22 13:46:42;;;;;;;7.53;0.82;;;;;;;;;;6148004;23;20001;-96
2023/12/22 13:49:14;;;;;;;4.03;0.65;;;;;;;;;;6124353;23;20025;-96
2023/12/22 13:51:45;;;;;;;5.15;0.88;;;;;;;;;;6148525;23;20006;-96
2023/12/22 13:54:38;;;;;;;2.50;0.60;;;;;;;;;;6148850;23;20010;-96
2023/12/22 13:57:07;;;;;;;3.75;0.50;;;;;;;;;;6124471;23;20009;-96
2023/12/22 14:07:49;;;;;;;3.88;0.50;;;;;;;;;;6192230;23;20080;-96
2023/12/22 14:10:18;;;;;;;7.50;0.88;;;;;;;;;;6181492;23;20008;-95
2023/12/22 14:12:43;;;;;;;5.10;0.60;;;;;;;;;;6179854;23;20001;-96
2023/12/22 14:15:10;;;;;;;2.45;0.57;;;;;;;;;;6179271;23;20130;-96
2023/12/22 14:17:48;;;;;;;6.47;0.73;;;;;;;;;;6178375;23;19997;-96
2023/12/22 14:20:14;;;;;;;2.13;0.40;;;;;;;;;;6179055;23;20020;-95
2023/12/22 14:22:41;;;;;;;3.55;0.50;;;;;;;;;;6180321;23;20012;-95
2023/12/22 14:25:08;;;;;;;4.15;0.85;;;;;;;;;;6177031;23;20088;-95
2023/12/22 14:27:34;;;;;;;2.42;0.20;;;;;;;;;;6175468;23;20001;-95
2023/12/22 14:29:59;;;;;;;2.25;0.73;;;;;;;;;;6178298;23;20004;-95
2023/12/22 14:32:29;;;;;;;2.95;0.98;;;;;;;;;;6175925;23;20033;-96
2023/12/22 14:34:55;;;;;;;2.38;0.43;;;;;;;;;;6175862;23;20009;-96
2023/12/22 14:37:29;;;;;;;3.40;0.43;;;;;;;;;;6198830;23;20032;-95
2023/12/22 14:39:55;;;;;;;5.10;0.60;;;;;;;;;;6174485;23;20009;-95
2023/12/22 14:42:20;;;;;;;2.97;0.40;;;;;;;;;;6173426;23;20005;-95
2023/12/22 14:44:52;;;;;;;3.40;0.50;;;;;;;;;;6175477;23;20045;-96
2023/12/22 14:47:20;;;;;;;2.00;0.50;;;;;;;;;;6151778;23;20399;-96
2023/12/22 14:49:45;;;;;;;2.70;0.50;;;;;;;;;;6175515;23;20005;-95
2023/12/22 14:52:11;;;;;;;1.65;0.30;;;;;;;;;;6176487;23;20016;-94
2023/12/22 14:57:44;;;;;;;2.33;0.40;;;;;;;;;;6086627;23;20481;-96
2023/12/22 15:00:12;;;;;;;3.35;0.32;;;;;;;;;;6177695;23;20005;-95
2023/12/22 15:02:37;;;;;;;6.55;0.68;;;;;;;;;;6178937;23;20409;-96
2023/12/22 15:05:04;;;;;;;4.15;0.70;;;;;;;;;;6171895;23;20024;-96
2023/12/22 15:07:32;;;;;;;4.85;0.75;;;;;;;;;;6174501;23;20006;-96
2023/12/22 15:09:58;;;;;;;4.85;0.60;;;;;;;;;;6175532;23;19997;-94
2023/12/22 15:12:24;;;;;;;9.55;1.90;;;;;;;;;;6173825;23;20005;-95
2023/12/22 15:14:49;;;;;;;6.10;0.85;;;;;;;;;;6172845;23;20097;-96
2023/12/22 15:17:16;;;;;;;10.40;0.63;;;;;;;;;;6176166;23;20001;-95
2023/12/22 15:19:42;;;;;;;5.28;1.00;;;;;;;;;;6175993;23;20077;-95
2023/12/22 15:22:10;;;;;;;1.73;0.32;;;;;;;;;;6176252;23;20267;-96
2023/12/22 15:24:36;;;;;;;2.58;0.40;;;;;;;;;;6177841;23;20005;-96
2023/12/22 15:27:04;;;;;;;4.88;0.73;;;;;;;;;;6176255;23;20001;-96
2023/12/22 15:29:30;;;;;;;7.45;0.73;;;;;;;;;;6172240;23;20005;-95
2023/12/22 15:31:59;;;;;;;4.53;0.50;;;;;;;;;;6174074;23;20092;-96
2023/12/22 15:34:28;;;;;;;2.60;0.65;;;;;;;;;;6174753;23;20009;-96
2023/12/22 15:36:56;;;;;;;4.25;0.60;;;;;;;;;;6174645;23;20006;-95
2023/12/22 15:39:26;;;;;;;7.22;1.42;;;;;;;;;;6176695;23;20073;-96
2023/12/22 15:41:52;;;;;;;2.50;0.75;;;;;;;;;;6189380;23;20024;-96
2023/12/22 15:44:20;;;;;;;10.00;1.58;;;;;;;;;;6172124;23;20000;-96
2023/12/22 15:46:45;;;;;;;3.50;0.50;;;;;;;;;;6171720;23;20004;-95
2023/12/22 15:49:13;;;;;;;2.88;0.40;;;;;;;;;;6172976;23;20002;-95
2023/12/22 15:54:16;;;;;;;4.88;0.50;;;;;;;;;;6198146;23;20032;-96
2023/12/22 15:56:41;;;;;;;4.68;0.60;;;;;;;;;;6174569;23;20081;-96
2023/12/22 15:59:12;;;;;;;2.20;0.40;;;;;;;;;;6178790;23;19996;-96
2023/12/22 16:04:58;;;;;;;3.65;0.90;;;;;;;;;;6148978;23;20004;-96
2023/12/22 16:07:52;;;;;;;3.80;0.57;;;;;;;;;;6146452;23;20022;-96
2023/12/22 16:59:25;;;;;;;6.45;0.95;;;;;;;;;;6194027;23;20016;-96
2023/12/22 17:31:24;;;;;;;2.80;0.70;;;;;;;;;;6205204;23;20116;-96
2023/12/22 17:33:49;;;;;;;2.55;0.50;;;;;;;;;;6175866;23;20053;-95
2023/12/22 17:36:18;;;;;;;9.57;1.00;;;;;;;;;;6181933;23;20068;-96
2023/12/22 17:38:46;;;;;;;6.68;0.90;;;;;;;;;;6178229;23;20036;-96
2023/12/22 17:41:11;;;;;;;7.15;1.13;;;;;;;;;;6173103;23;20004;-95
2023/12/22 17:43:36;;;;;;;3.58;0.60;;;;;;;;;;6175004;23;20012;-95
2023/12/22 17:46:02;;;;;;;3.03;0.52;;;;;;;;;;6175739;23;19997;-96
2023/12/22 17:48:30;;;;;;;4.20;0.80;;;;;;;;;;6172220;23;20005;-96
2023/12/22 17:51:01;;;;;;;4.43;0.80;;;;;;;;;;6173338;23;20060;-96
2023/12/22 17:53:26;;;;;;;2.58;0.55;;;;;;;;;;6149871;23;20012;-96
2023/12/22 17:55:52;;;;;;;7.40;1.00;;;;;;;;;;6174030;23;20040;-96
2023/12/22 17:58:20;;;;;;;5.57;1.00;;;;;;;;;;6175766;23;20091;-96
2023/12/22 18:00:46;;;;;;;5.55;0.60;;;;;;;;;;6176357;23;20104;-96
2023/12/22 18:03:14;;;;;;;3.78;0.80;;;;;;;;;;6180064;23;19993;-96
2023/12/22 18:05:42;;;;;;;1.95;0.47;;;;;;;;;;6179799;23;20021;-96
2023/12/22 18:08:09;;;;;;;2.47;0.55;;;;;;;;;;6181344;23;20004;-96
2023/12/22 18:10:35;;;;;;;4.63;0.98;;;;;;;;;;6180515;23;19993;-96
2023/12/22 18:13:02;;;;;;;5.10;0.80;;;;;;;;;;6182170;23;20395;-95
2023/12/22 18:15:32;;;;;;;4.63;1.10;;;;;;;;;;6182255;23;20009;-96
2023/12/22 18:17:58;;;;;;;4.97;0.60;;;;;;;;;;6182252;23;20033;-96
2023/12/22 18:23:00;;;;;;;3.38;0.70;;;;;;;;;;6167656;23;20025;-96
2023/12/22 18:25:25;;;;;;;3.83;1.35;;;;;;;;;;6143829;23;20017;-96
2023/12/22 18:27:51;;;;;;;4.20;0.70;;;;;;;;;;6141077;23;20001;-96
2023/12/22 18:30:17;;;;;;;3.88;0.68;;;;;;;;;;6139086;23;20014;-95
2023/12/22 18:32:44;;;;;;;2.25;0.68;;;;;;;;;;6140809;23;20413;-94
2023/12/22 18:35:09;;;;;;;7.43;0.82;;;;;;;;;;6140827;23;20009;-96
2023/12/22 18:37:39;;;;;;;3.83;0.68;;;;;;;;;;6143431;23;20033;-96
2023/12/22 18:40:05;;;;;;;8.13;0.98;;;;;;;;;;6146539;23;20412;-95
2023/12/22 18:42:30;;;;;;;11.85;0.90;;;;;;;;;;6144349;23;19998;-96
2023/12/22 18:44:58;;;;;;;11.98;2.05;;;;;;;;;;6144001;23;20061;-95
2023/12/22 18:47:26;;;;;;;1.02;0.40;;;;;;;;;;6144256;23;19997;-95
2023/12/22 18:49:53;;;;;;;4.57;0.80;;;;;;;;;;6142694;23;20010;-96
2023/12/22 18:52:20;;;;;;;6.75;0.70;;;;;;;;;;6144122;23;20418;-96
2023/12/22 18:54:45;;;;;;;2.60;0.75;;;;;;;;;;6144186;23;20018;-96
2023/12/22 18:57:10;;;;;;;5.32;0.80;;;;;;;;;;6144126;23;20056;-96
2023/12/22 18:59:36;;;;;;;4.60;0.63;;;;;;;;;;6143260;23;20077;-96
2023/12/22 19:02:03;;;;;;;1.95;0.43;;;;;;;;;;6146843;23;20002;-96
2023/12/22 19:04:31;;;;;;;5.75;0.90;;;;;;;;;;6144678;23;19997;-95
2023/12/22 19:07:04;;;;;;;3.83;0.68;;;;;;;;;;6144473;23;20012;-96
2023/12/22 19:09:32;;;;;;;7.57;0.80;;;;;;;;;;6143116;23;20002;-96
2023/12/22 19:11:58;;;;;;;6.75;1.27;;;;;;;;;;6144828;23;20377;-95
2023/12/22 19:14:31;;;;;;;3.97;0.60;;;;;;;;;;6146170;23;20021;-95
2023/12/22 19:17:05;;;;;;;8.15;0.68;;;;;;;;;;6145326;23;19993;-96
2023/12/22 19:19:30;;;;;;;7.15;0.63;;;;;;;;;;6145889;23;20013;-96
2023/12/22 19:22:16;;;;;;;1.13;0.40;;;;;;;;;;6144506;23;20096;-95
2023/12/22 19:24:54;;;;;;;;;;;;;;;;;;;;;
2023/12/22 19:27:30;;;;;;;5.07;0.40;;;;;;;;;;6172989;23;20017;-96
2023/12/22 19:29:57;;;;;;;3.45;0.70;;;;;;;;;;6145451;23;20013;-95
2023/12/22 19:32:25;;;;;;;6.57;1.08;;;;;;;;;;6143549;23;20017;-96
2023/12/22 19:35:04;;;;;;;8.13;0.90;;;;;;;;;;6141401;23;20002;-96
2023/12/22 19:37:30;;;;;;;1.63;0.40;;;;;;;;;;6141839;23;20077;-95
2023/12/22 19:39:56;;;;;;;7.43;1.13;;;;;;;;;;6169825;23;20012;-96
2023/12/22 19:42:35;;;;;;;58.78;17.00;;;;;;;;;;6144294;23;19998;-96
2023/12/22 19:45:11;;;;;;;8.65;2.55;;;;;;;;;;6142676;23;20002;-96
2023/12/22 19:47:45;;;;;;;1.02;0.38;;;;;;;;;;6144439;23;20008;-96
2023/12/22 19:50:32;;;;;;;;;;;;;;;;;;;;;
2023/12/22 19:53:00;;;;;;;4.40;1.20;;;;;;;;;;6187717;23;20017;-96
2023/12/22 19:55:42;;;;;;;;;;;;;;;;;;;;;
2023/12/22 19:58:19;;;;;;;10.40;2.85;;;;;;;;;;6209063;23;20001;-96
2023/12/22 20:32:02;;;;;;;8.07;0.90;;;;;;;;;;6203945;23;20021;-96
2023/12/22 20:43:11;;;;;;;10.75;0.90;;;;;;;;;;6213514;23;20021;-96
2023/12/22 20:45:42;;;;;;;6.43;0.68;;;;;;;;;;6183986;23;20016;-96
2023/12/22 20:48:08;;;;;;;;;;;;;;;;;;6201531;22;20005;-96
2023/12/22 20:50:36;;;;;;;5.13;0.82;;;;;;;;;;6183107;23;19898;-96
2023/12/22 20:53:09;;;;;;;6.40;1.27;;;;;;;;;;6158741;23;20021;-96
2023/12/22 20:55:51;;;;;;;;;;;;;;;;;;;;;
2023/12/22 20:58:22;;;;;;;8.65;1.13;;;;;;;;;;6090304;23;19999;-96
2023/12/22 21:00:50;;;;;;;;;;;;;;;;;;6090918;23;20058;-96
2023/12/22 21:03:24;;;;;;;4.50;0.80;;;;;;;;;;6175380;23;19923;-95
2023/12/22 21:05:57;;;;;;;9.25;1.65;;;;;;;;;;6182168;23;20024;-96
2023/12/22 21:11:10;;;;;;;8.70;0.70;;;;;;;;;;6192373;23;20013;-96
2023/12/22 21:24:26;;;;;;;3.08;0.40;;;;;;;;;;6209764;22;20060;-96
2023/12/22 21:27:07;;;;;;;5.82;0.63;;;;;;;;;;6182031;23;20005;-96
2023/12/22 21:42:56;;;;;;;2.53;0.47;;;;;;;;;;6196690;23;19903;-96
2023/12/22 22:50:18;;;;;;;3.38;0.70;;;;;;;;;;6180413;23;20089;-96
2023/12/22 22:52:50;;;;;;;10.88;1.38;;;;;;;;;;6153986;23;20025;-96
2023/12/22 22:55:30;;;;;;;6.03;0.90;;;;;;;;;;6150783;23;20005;-96
2023/12/22 22:58:29;;;;;;;;;;;;;;;;;;;;;
2023/12/22 23:01:21;;;;;;;;;;;;;;;;;;;;;
